Time,TemperatureF,DewpointF,PressureIn,WindDirection,WindDirectionDegrees,WindSpeedMPH,WindSpeedGustMPH,Humidity,HourlyPrecipIn,Conditions,Clouds,dailyrainin,SoftwareType,DateUTC
2013-06-21 00:02:00,79.0,64.0,30.02,SE,130,7.0,11.0,60,0.00,,,0.00,weatherlink.com 1.10,2013-06-21 05:02:00,
2013-06-21 00:17:00,79.2,64.0,30.01,SE,128,10.0,13.0,59,0.00,,,0.00,weatherlink.com 1.10,2013-06-21 05:17:00,
2013-06-21 00:32:00,79.2,64.0,30.00,ESE,123,11.0,14.0,59,0.00,,,0.00,weatherlink.com 1.10,2013-06-21 05:32:00,
2013-06-21 00:47:00,78.7,65.0,29.99,SE,146,13.0,16.0,62,0.00,,,0.00,weatherlink.com 1.10,2013-06-21 05:47:00,
2013-06-21 01:02:00,78.5,65.0,29.99,SE,142,9.0,16.0,63,0.00,,,0.00,weatherlink.com 1.10,2013-06-21 06:02:00,
2013-06-21 01:17:00,78.9,64.0,29.99,SE,146,11.0,19.0,61,0.00,,,0.00,weatherlink.com 1.10,2013-06-21 06:17:00,
2013-06-21 01:32:00,78.9,64.0,29.98,SSE,148,12.0,16.0,61,0.00,,,0.00,weatherlink.com 1.10,2013-06-21 06:32:00,
2013-06-21 01:47:00,78.3,65.0,29.98,ESE,121,10.0,14.0,63,0.00,,,0.00,weatherlink.com 1.10,2013-06-21 06:47:00,
2013-06-21 02:02:00,77.8,65.0,29.95,SE,132,10.0,15.0,65,0.00,,,0.00,weatherlink.com 1.10,2013-06-21 07:02:00,
2013-06-21 02:17:00,77.7,65.0,29.96,SE,137,9.0,12.0,65,0.00,,,0.00,weatherlink.com 1.10,2013-06-21 07:17:00,
2013-06-21 02:32:00,78.0,65.0,29.95,SE,133,7.0,12.0,65,0.00,,,0.00,weatherlink.com 1.10,2013-06-21 07:32:00,
2013-06-21 02:47:00,78.6,65.0,29.95,SE,130,9.0,13.0,64,0.00,,,0.00,weatherlink.com 1.10,2013-06-21 07:47:00,
2013-06-21 03:02:00,78.9,66.0,29.95,SE,135,7.0,13.0,64,0.00,,,0.00,weatherlink.com 1.10,2013-06-21 08:02:00,
2013-06-21 03:17:00,78.5,66.0,29.94,SE,128,12.0,16.0,65,0.00,,,0.00,weatherlink.com 1.10,2013-06-21 08:17:00,
2013-06-21 03:32:00,78.5,66.0,29.94,ESE,119,10.0,15.0,65,0.00,,,0.00,weatherlink.com 1.10,2013-06-21 08:32:00,
2013-06-21 03:47:00,79.0,66.0,29.94,SE,138,7.0,15.0,65,0.00,,,0.00,weatherlink.com 1.10,2013-06-21 08:47:00,
2013-06-21 04:02:00,78.9,67.0,29.93,SSE,163,8.0,16.0,66,0.00,,,0.00,weatherlink.com 1.10,2013-06-21 09:02:00,
2013-06-21 04:17:00,79.1,68.0,29.92,SSE,157,13.0,23.0,68,0.00,,,0.00,weatherlink.com 1.10,2013-06-21 09:17:00,
2013-06-21 04:32:00,78.8,68.0,29.91,SE,128,15.0,30.0,69,0.00,,,0.00,weatherlink.com 1.10,2013-06-21 09:32:00,
2013-06-21 04:47:00,77.4,68.0,29.89,SSE,152,21.0,28.0,73,0.02,,,0.02,weatherlink.com 1.10,2013-06-21 09:47:00,
2013-06-21 05:02:00,77.5,68.0,29.89,SE,128,11.0,28.0,73,0.02,,,0.02,weatherlink.com 1.10,2013-06-21 10:02:00,
2013-06-21 05:17:00,77.7,68.0,29.89,SSE,159,12.0,28.0,73,0.02,,,0.02,weatherlink.com 1.10,2013-06-21 10:17:00,
2013-06-21 05:32:00,77.2,68.0,29.89,ESE,122,13.0,32.0,74,0.02,,,0.02,weatherlink.com 1.10,2013-06-21 10:32:00,
2013-06-21 05:47:00,74.8,68.0,29.87,SSE,159,12.0,30.0,80,0.01,,,0.03,weatherlink.com 1.10,2013-06-21 10:47:00,
2013-06-21 06:02:00,73.4,69.0,29.94,North,360,14.0,26.0,86,0.04,,,0.02,weatherlink.com 1.10,2013-06-21 11:02:00,
2013-06-21 06:17:00,71.9,69.0,29.93,South,172,19.0,34.0,89,0.31,,,0.29,weatherlink.com 1.10,2013-06-21 11:17:00,
2013-06-21 06:33:00,64.8,62.0,30.08,West,267,8.0,40.0,91,0.88,,,0.86,weatherlink.com 1.10,2013-06-21 11:33:00,
2013-06-21 06:48:00,63.8,62.0,30.03,NE,42,5.0,16.0,94,1.20,,,1.19,weatherlink.com 1.10,2013-06-21 11:48:00,
2013-06-21 07:03:00,64.0,62.0,30.00,ENE,70,6.0,9.0,94,1.20,,,1.24,weatherlink.com 1.10,2013-06-21 12:03:00,
2013-06-21 07:18:00,64.3,63.0,30.01,ESE,120,2.0,9.0,94,0.98,,,1.27,weatherlink.com 1.10,2013-06-21 12:18:00,
2013-06-21 07:33:00,64.4,63.0,29.98,ESE,120,0.0,0.0,95,0.40,,,1.28,weatherlink.com 1.10,2013-06-21 12:33:00,
2013-06-21 07:48:00,64.6,63.0,29.96,ESE,113,8.0,12.0,95,0.09,,,1.29,weatherlink.com 1.10,2013-06-21 12:48:00,
2013-06-21 08:03:00,64.7,63.0,29.93,East,82,4.0,14.0,94,0.06,,,1.30,weatherlink.com 1.10,2013-06-21 13:03:00,
2013-06-21 08:18:00,65.1,63.0,29.93,NW,323,0.0,7.0,93,0.05,,,1.32,weatherlink.com 1.10,2013-06-21 13:18:00,
2013-06-21 08:33:00,65.4,63.0,29.95,SE,145,0.0,8.0,92,0.04,,,1.32,weatherlink.com 1.10,2013-06-21 13:33:00,
2013-06-21 08:48:00,66.1,64.0,29.95,SSW,194,15.0,19.0,93,0.05,,,1.34,weatherlink.com 1.10,2013-06-21 13:48:00,
2013-06-21 09:03:00,66.0,64.0,29.93,SSE,160,19.0,30.0,92,0.06,,,1.36,weatherlink.com 1.10,2013-06-21 14:03:00,
2013-06-21 09:18:00,66.6,64.0,29.92,SE,138,24.0,28.0,90,0.06,,,1.38,weatherlink.com 1.10,2013-06-21 14:18:00,
2013-06-21 09:33:00,66.7,64.0,29.89,South,172,23.0,34.0,90,0.06,,,1.38,weatherlink.com 1.10,2013-06-21 14:33:00,
2013-06-21 09:48:00,66.6,64.0,29.85,SE,144,33.0,43.0,92,0.04,,,1.38,weatherlink.com 1.10,2013-06-21 14:48:00,
2013-06-21 10:03:00,67.9,64.0,29.93,NW,311,5.0,34.0,87,0.02,,,1.38,weatherlink.com 1.10,2013-06-21 15:03:00,
2013-06-21 10:18:00,68.8,64.0,29.92,NNE,23,0.0,10.0,83,0.00,,,1.38,weatherlink.com 1.10,2013-06-21 15:18:00,
2013-06-21 10:33:00,69.6,64.0,29.94,North,349,0.0,14.0,82,0.00,,,1.38,weatherlink.com 1.10,2013-06-21 15:33:00,
2013-06-21 10:48:00,69.1,64.0,29.96,SE,128,11.0,11.0,84,0.00,,,1.38,weatherlink.com 1.10,2013-06-21 15:48:00,
2013-06-21 11:18:00,70.7,64.0,29.95,SSE,168,15.0,16.0,78,0.00,,,1.38,weatherlink.com 1.10,2013-06-21 16:18:00,
2013-06-21 11:33:00,70.7,64.0,29.94,SE,142,0.0,15.0,78,0.00,,,1.38,weatherlink.com 1.10,2013-06-21 16:33:00,
2013-06-21 11:48:00,70.5,64.0,29.94,WSW,257,2.0,5.0,80,0.00,,,1.38,weatherlink.com 1.10,2013-06-21 16:48:00,
2013-06-21 12:18:00,70.3,64.0,29.98,WSW,244,6.0,7.0,79,0.00,,,1.38,weatherlink.com 1.10,2013-06-21 17:18:00,
2013-06-21 12:33:00,70.6,64.0,29.97,WSW,244,5.0,8.0,79,0.00,,,1.38,weatherlink.com 1.10,2013-06-21 17:33:00,
2013-06-21 12:48:00,71.1,64.0,29.98,WSW,244,0.0,5.0,79,0.00,,,1.38,weatherlink.com 1.10,2013-06-21 17:48:00,
2013-06-21 13:03:00,71.4,64.0,29.98,WSW,244,0.0,8.0,78,0.00,,,1.38,weatherlink.com 1.10,2013-06-21 18:03:00,
2013-06-21 13:18:00,72.2,64.0,29.97,WSW,244,0.0,6.0,76,0.00,,,1.38,weatherlink.com 1.10,2013-06-21 18:18:00,
2013-06-21 13:33:00,73.5,65.0,29.97,WSW,242,2.0,7.0,74,0.00,,,1.38,weatherlink.com 1.10,2013-06-21 18:33:00,
2013-06-21 13:48:00,73.7,65.0,29.96,WSW,243,2.0,7.0,75,0.00,,,1.38,weatherlink.com 1.10,2013-06-21 18:48:00,
2013-06-21 14:03:00,73.9,66.0,29.96,WSW,243,0.0,6.0,75,0.00,,,1.38,weatherlink.com 1.10,2013-06-21 19:03:00,
2013-06-21 14:18:00,74.6,65.0,29.95,WSW,246,5.0,6.0,72,0.00,,,1.38,weatherlink.com 1.10,2013-06-21 19:18:00,
2013-06-21 14:33:00,75.0,65.0,29.95,WSW,249,0.0,7.0,72,0.00,,,1.38,weatherlink.com 1.10,2013-06-21 19:33:00,
2013-06-21 14:48:00,76.8,66.0,29.95,West,270,0.0,5.0,70,0.00,,,1.38,weatherlink.com 1.10,2013-06-21 19:48:00,
2013-06-21 15:03:00,76.7,65.0,29.96,West,270,1.0,6.0,67,0.00,,,1.38,weatherlink.com 1.10,2013-06-21 20:03:00,
2013-06-21 15:18:00,78.7,66.0,29.96,West,270,0.0,6.0,65,0.00,,,1.38,weatherlink.com 1.10,2013-06-21 20:18:00,
2013-06-21 15:33:00,78.4,67.0,29.96,WNW,295,4.0,8.0,67,0.00,,,1.38,weatherlink.com 1.10,2013-06-21 20:33:00,
2013-06-21 15:48:00,77.5,67.0,29.96,North,355,0.0,9.0,69,0.00,,,1.38,weatherlink.com 1.10,2013-06-21 20:48:00,
2013-06-21 16:03:00,79.6,67.0,29.97,NE,53,3.0,7.0,65,0.00,,,1.38,weatherlink.com 1.10,2013-06-21 21:03:00,
2013-06-21 16:18:00,77.9,66.0,29.96,NE,51,6.0,8.0,67,0.00,,,1.38,weatherlink.com 1.10,2013-06-21 21:18:00,
2013-06-21 16:33:00,78.0,66.0,29.96,NE,36,5.0,9.0,67,0.00,,,1.38,weatherlink.com 1.10,2013-06-21 21:33:00,
2013-06-21 16:48:00,78.5,67.0,29.95,NE,36,0.0,6.0,67,0.00,,,1.38,weatherlink.com 1.10,2013-06-21 21:48:00,
2013-06-21 17:03:00,80.1,67.0,29.95,NE,36,0.0,6.0,65,0.00,,,1.38,weatherlink.com 1.10,2013-06-21 22:03:00,
2013-06-21 17:18:00,79.7,67.0,29.94,NE,34,6.0,10.0,66,0.00,,,1.38,weatherlink.com 1.10,2013-06-21 22:18:00,
2013-06-21 17:48:00,78.9,68.0,29.95,NE,34,7.0,11.0,70,0.00,,,1.38,weatherlink.com 1.10,2013-06-21 22:48:00,
2013-06-21 18:03:00,78.7,69.0,29.96,NE,41,7.0,12.0,71,0.00,,,1.38,weatherlink.com 1.10,2013-06-21 23:03:00,
2013-06-21 18:18:00,78.6,69.0,29.96,NE,52,3.0,9.0,72,0.00,,,1.38,weatherlink.com 1.10,2013-06-21 23:18:00,
2013-06-21 18:33:00,78.5,69.0,29.98,NE,51,5.0,8.0,72,0.00,,,1.38,weatherlink.com 1.10,2013-06-21 23:33:00,
2013-06-21 18:48:00,78.1,69.0,29.98,NE,51,0.0,4.0,74,0.00,,,1.38,weatherlink.com 1.10,2013-06-21 23:48:00,
2013-06-21 19:03:00,77.9,69.0,29.99,NE,51,0.0,5.0,75,0.00,,,1.38,weatherlink.com 1.10,2013-06-22 00:03:00,
2013-06-21 19:18:00,78.0,70.0,29.99,NE,51,2.0,6.0,75,0.00,,,1.38,weatherlink.com 1.10,2013-06-22 00:18:00,
2013-06-21 19:33:00,78.0,69.0,30.00,NE,51,6.0,8.0,74,0.00,,,1.38,weatherlink.com 1.10,2013-06-22 00:33:00,
2013-06-21 19:48:00,77.8,69.0,30.01,NE,51,0.0,6.0,75,0.00,,,1.38,weatherlink.com 1.10,2013-06-22 00:48:00,
2013-06-21 20:03:00,77.7,69.0,30.02,NE,51,5.0,7.0,75,0.00,,,1.38,weatherlink.com 1.10,2013-06-22 01:03:00,
2013-06-21 20:18:00,77.7,70.0,30.02,NE,51,5.0,5.0,76,0.00,,,1.38,weatherlink.com 1.10,2013-06-22 01:18:00,
2013-06-21 20:33:00,77.4,69.0,30.01,NE,51,0.0,5.0,75,0.00,,,1.38,weatherlink.com 1.10,2013-06-22 01:33:00,
2013-06-21 20:48:00,77.0,69.0,30.01,ENE,73,7.0,10.0,75,0.00,,,1.38,weatherlink.com 1.10,2013-06-22 01:48:00,
2013-06-21 21:03:00,76.6,69.0,30.02,ENE,73,0.0,8.0,76,0.00,,,1.38,weatherlink.com 1.10,2013-06-22 02:03:00,
2013-06-21 21:18:00,76.4,68.0,30.02,ENE,73,0.0,5.0,76,0.00,,,1.38,weatherlink.com 1.10,2013-06-22 02:18:00,
2013-06-21 21:33:00,76.0,68.0,30.02,ENE,73,4.0,8.0,77,0.00,,,1.38,weatherlink.com 1.10,2013-06-22 02:33:00,
2013-06-21 21:48:00,75.7,68.0,30.02,ENE,73,5.0,9.0,77,0.00,,,1.38,weatherlink.com 1.10,2013-06-22 02:48:00,
2013-06-21 22:03:00,75.3,68.0,30.02,ENE,73,5.0,8.0,78,0.00,,,1.38,weatherlink.com 1.10,2013-06-22 03:03:00,
2013-06-21 22:18:00,74.8,68.0,30.01,ESE,113,13.0,15.0,79,0.00,,,1.38,weatherlink.com 1.10,2013-06-22 03:18:00,
2013-06-21 22:33:00,74.7,68.0,30.02,ESE,116,7.0,13.0,79,0.00,,,1.38,weatherlink.com 1.10,2013-06-22 03:33:00,
2013-06-21 22:48:00,74.7,67.0,30.03,ESE,116,0.0,6.0,78,0.00,,,1.38,weatherlink.com 1.10,2013-06-22 03:48:00,
2013-06-21 23:03:00,74.6,68.0,30.06,West,279,8.0,10.0,79,0.00,,,1.38,weatherlink.com 1.10,2013-06-22 04:03:00,
2013-06-21 23:18:00,73.8,68.0,30.06,NNW,343,10.0,19.0,83,0.00,,,1.38,weatherlink.com 1.10,2013-06-22 04:18:00,
2013-06-21 23:33:00,74.5,68.0,30.05,North,360,11.0,20.0,80,0.00,,,1.38,weatherlink.com 1.10,2013-06-22 04:33:00,
2013-06-21 23:48:00,74.4,68.0,30.02,East,81,8.0,13.0,80,0.00,,,1.38,weatherlink.com 1.10,2013-06-22 04:48:00,